createdAt,value
2023-06-26T00:26:58.459Z,21.60
2023-06-26T00:43:23.942Z,29.60
2023-06-26T00:45:51.798Z,30.75
2023-06-26T00:48:21.828Z,34.67
2023-06-26T00:50:49.592Z,26.55
2023-06-26T00:53:17.399Z,32.95
2023-06-26T00:55:45.845Z,28.17
2023-06-26T00:58:13.742Z,26.48
2023-06-26T01:00:42.249Z,25.38
2023-06-26T01:03:10.175Z,27.00
2023-06-26T01:05:39.695Z,26.10
2023-06-26T01:08:09.164Z,31.48
2023-06-26T01:10:37.330Z,29.77
2023-06-26T01:13:05.841Z,26.92
2023-06-26T01:15:33.755Z,21.30
2023-06-26T01:18:04.605Z,27.13
2023-06-26T01:20:43.781Z,32.28
2023-06-26T01:23:11.418Z,29.13
2023-06-26T01:26:06.844Z,23.83
2023-06-26T01:28:40.119Z,26.10
2023-06-26T01:31:08.831Z,28.42
2023-06-26T01:33:37.568Z,25.90
2023-06-26T01:36:05.677Z,28.73
2023-06-26T01:38:33.328Z,28.05
2023-06-26T01:41:01.056Z,23.00
2023-06-26T01:44:08.678Z,31.75
2023-06-26T01:46:55.065Z,31.13
2023-06-26T01:49:50.635Z,23.40
2023-06-26T01:52:37.222Z,25.27
2023-06-26T01:55:31.203Z,25.05
2023-06-26T01:58:00.426Z,29.05
2023-06-26T02:00:29.036Z,26.13
2023-06-26T02:02:56.925Z,27.08
2023-06-26T02:05:25.182Z,31.50
2023-06-26T02:07:53.015Z,30.50
2023-06-26T02:10:20.840Z,24.90
2023-06-26T02:12:48.540Z,32.63
2023-06-26T02:15:17.490Z,30.00
2023-06-26T02:17:49.292Z,30.05
2023-06-26T02:20:17.471Z,33.17
2023-06-26T02:22:45.628Z,34.83
2023-06-26T02:25:13.954Z,37.72
2023-06-26T02:27:43.618Z,31.55
2023-06-26T02:30:11.840Z,42.15
2023-06-26T02:32:40.127Z,35.22
2023-06-26T02:35:08.612Z,32.63
2023-06-26T02:37:36.589Z,37.28
2023-06-26T02:42:41.457Z,40.53
2023-06-26T02:45:10.126Z,41.45
2023-06-26T02:47:40.833Z,30.10
2023-06-26T02:50:11.266Z,33.45
2023-06-26T02:55:48.892Z,34.05
2023-06-26T02:58:17.587Z,33.70
2023-06-26T03:00:46.117Z,34.53
2023-06-26T03:03:17.330Z,36.47
2023-06-26T03:05:45.799Z,30.35
2023-06-26T03:08:14.316Z,42.08
2023-06-26T03:10:42.191Z,44.97
2023-06-26T03:13:10.504Z,46.33
2023-06-26T03:15:38.804Z,38.33
2023-06-26T03:18:07.575Z,56.05
2023-06-26T03:20:35.340Z,47.40
2023-06-26T03:23:03.067Z,45.22
2023-06-26T03:25:30.821Z,47.47
2023-06-26T03:28:10.183Z,40.08
2023-06-26T03:30:38.345Z,44.65
2023-06-26T03:33:07.307Z,43.88
2023-06-26T03:35:35.341Z,48.38
2023-06-26T03:38:05.602Z,53.22
2023-06-26T03:40:34.176Z,50.00
2023-06-26T03:43:02.784Z,46.83
2023-06-26T03:45:38.197Z,51.85
2023-06-26T03:48:05.949Z,46.88
2023-06-26T03:50:33.688Z,56.30
2023-06-26T03:53:01.536Z,46.65
2023-06-26T03:55:29.333Z,63.90
2023-06-26T03:57:57.062Z,54.67
2023-06-26T04:00:24.878Z,43.75
2023-06-26T04:02:52.834Z,47.83
2023-06-26T04:05:20.661Z,45.67
2023-06-26T04:07:52.351Z,33.17
2023-06-26T04:10:22.496Z,28.90
2023-06-26T04:12:50.292Z,41.55
2023-06-26T04:15:17.936Z,29.63
2023-06-26T04:17:45.850Z,24.05
2023-06-26T04:20:14.315Z,26.35
2023-06-26T04:22:42.112Z,32.42
2023-06-26T04:25:10.085Z,24.98
2023-06-26T04:27:39.527Z,27.10
2023-06-26T04:30:09.493Z,25.25
2023-06-26T04:32:37.267Z,31.08
2023-06-26T04:35:05.284Z,24.55
2023-06-26T04:37:33.121Z,22.10
2023-06-26T04:40:05.027Z,24.42
2023-06-26T04:42:33.430Z,31.48
2023-06-26T04:45:03.439Z,21.35
2023-06-26T04:47:33.802Z,18.92
2023-06-26T04:50:01.814Z,23.40
2023-06-26T04:52:32.041Z,19.60
2023-06-26T04:54:59.942Z,15.98
2023-06-26T04:57:27.803Z,16.00
2023-06-26T04:59:59.850Z,16.30
2023-06-26T05:02:36.329Z,16.15
2023-06-26T05:05:17.843Z,14.10
2023-06-26T05:11:41.505Z,18.85
2023-06-26T05:14:26.428Z,17.10
2023-06-26T05:17:39.407Z,27.88
2023-06-26T05:20:17.633Z,19.75
2023-06-26T05:22:45.752Z,15.68
2023-06-26T05:25:15.964Z,14.85
2023-06-26T05:27:44.102Z,15.85
2023-06-26T05:30:12.702Z,14.63
2023-06-26T05:32:44.510Z,13.70
2023-06-26T05:35:28.333Z,16.15
2023-06-26T05:39:11.422Z,13.90
2023-06-26T06:01:34.959Z,11.55
2023-06-26T06:04:05.568Z,10.65
2023-06-26T06:06:33.347Z,9.65
2023-06-26T06:09:01.009Z,10.88
2023-06-26T06:11:28.685Z,13.20
2023-06-26T06:13:56.365Z,11.15
2023-06-26T06:16:23.951Z,10.15
2023-06-26T06:18:51.802Z,13.77
2023-06-26T06:21:21.692Z,10.63
2023-06-26T06:23:49.298Z,8.40
2023-06-26T06:26:16.898Z,10.70
2023-06-26T06:28:44.550Z,8.75
2023-06-26T06:31:12.471Z,10.05
2023-06-26T06:33:40.376Z,11.52
2023-06-26T06:36:10.607Z,10.93
2023-06-26T06:38:38.341Z,11.63
2023-06-26T06:41:08.564Z,8.77
2023-06-26T06:43:37.280Z,16.25
2023-06-26T06:46:06.678Z,11.13
2023-06-26T06:48:34.399Z,8.20
2023-06-26T06:51:02.232Z,14.43
2023-06-26T06:53:30.141Z,9.75
2023-06-26T06:55:57.736Z,9.85
2023-06-26T06:58:25.382Z,10.65
2023-06-26T07:00:53.296Z,14.85
2023-06-26T07:03:22.771Z,8.15
2023-06-26T07:05:50.458Z,7.20
2023-06-26T07:08:18.343Z,6.72
2023-06-26T07:10:46.067Z,6.03
2023-06-26T07:13:13.962Z,7.07
2023-06-26T07:15:41.683Z,7.85
2023-06-26T07:18:09.344Z,12.00
2023-06-26T07:20:37.977Z,7.68
2023-06-26T07:23:05.868Z,10.00
2023-06-26T07:25:33.530Z,11.93
2023-06-26T07:28:01.510Z,8.52
2023-06-26T07:30:29.198Z,9.18
2023-06-26T07:32:57.041Z,13.90
2023-06-26T07:35:26.230Z,11.05
2023-06-26T07:37:53.984Z,12.98
2023-06-26T07:40:21.933Z,13.52
2023-06-26T07:42:50.225Z,13.65
2023-06-26T07:45:18.094Z,11.25
2023-06-26T07:47:45.971Z,23.98
2023-06-26T07:50:13.851Z,16.00
2023-06-26T07:52:41.564Z,15.30
2023-06-26T07:55:09.524Z,11.80
2023-06-26T07:57:37.227Z,8.98
2023-06-26T08:00:08.157Z,9.95
2023-06-26T08:02:44.742Z,18.40
2023-06-26T08:05:12.821Z,7.65
2023-06-26T08:07:40.828Z,19.15
2023-06-26T08:10:08.707Z,11.02
2023-06-26T08:12:37.982Z,10.23
2023-06-26T08:15:06.252Z,15.50
2023-06-26T08:17:35.241Z,8.75
2023-06-26T08:20:03.607Z,10.77
2023-06-26T08:22:33.030Z,16.50
2023-06-26T08:25:00.856Z,14.35
2023-06-26T08:27:28.672Z,11.63
2023-06-26T08:29:56.342Z,14.93
2023-06-26T08:32:24.294Z,8.70
2023-06-26T08:34:52.565Z,12.20
2023-06-26T08:37:21.232Z,10.10
2023-06-26T08:39:49.905Z,9.07
2023-06-26T08:42:17.990Z,11.38
2023-06-26T08:45:00.265Z,9.43
2023-06-26T08:47:36.894Z,9.95
2023-06-26T08:50:15.471Z,21.80
2023-06-26T08:53:02.320Z,15.15
2023-06-26T08:55:30.313Z,9.23
2023-06-26T08:57:58.811Z,9.95
2023-06-26T09:00:26.951Z,7.88
2023-06-26T09:02:55.273Z,8.60
2023-06-26T09:05:23.152Z,11.45
2023-06-26T09:07:51.345Z,12.57
2023-06-26T09:10:19.154Z,10.80
2023-06-26T09:12:49.456Z,9.52
2023-06-26T09:15:20.999Z,9.65
2023-06-26T09:17:49.751Z,13.02
2023-06-26T09:20:17.754Z,11.93
2023-06-26T09:22:52.445Z,7.32
2023-06-26T09:25:20.440Z,8.43
2023-06-26T09:27:48.245Z,11.18
2023-06-26T09:30:19.654Z,18.48
2023-06-26T09:32:47.754Z,8.60
2023-06-26T09:35:16.107Z,14.05
2023-06-26T09:37:44.642Z,7.40
2023-06-26T09:40:12.804Z,5.80
2023-06-26T09:42:40.678Z,10.88
2023-06-26T09:45:09.023Z,12.02
2023-06-26T09:47:36.976Z,11.80
2023-06-26T09:50:06.245Z,7.63
2023-06-26T09:52:35.875Z,8.63
2023-06-26T09:55:10.940Z,8.85
2023-06-26T09:57:39.613Z,8.55
2023-06-26T10:00:09.581Z,7.97
2023-06-26T10:02:43.076Z,7.15
2023-06-26T10:05:11.205Z,8.93
2023-06-26T10:07:40.492Z,5.47
2023-06-26T10:10:11.523Z,9.40
2023-06-26T10:12:39.678Z,6.63
2023-06-26T10:15:14.163Z,6.78
2023-06-26T10:17:45.858Z,7.00
2023-06-26T10:20:15.692Z,13.70
2023-06-26T10:22:47.038Z,7.85
2023-06-26T10:25:19.983Z,11.77
2023-06-26T10:27:59.810Z,15.48
2023-06-26T10:30:37.164Z,9.10
2023-06-26T10:33:05.238Z,8.32
2023-06-26T10:35:33.322Z,7.53
2023-06-26T10:38:08.011Z,17.00
2023-06-26T10:40:44.045Z,10.00
2023-06-26T10:43:13.963Z,12.10
2023-06-26T10:45:47.513Z,10.07
2023-06-26T10:48:18.156Z,9.65
2023-06-26T10:50:50.200Z,7.88
2023-06-26T10:53:26.611Z,8.23
2023-06-26T10:56:05.523Z,7.38
2023-06-26T10:58:43.601Z,8.50
2023-06-26T11:01:27.664Z,8.02
2023-06-26T11:04:08.427Z,10.15
2023-06-26T11:06:40.071Z,10.30
2023-06-26T11:09:14.824Z,8.73
2023-06-26T11:11:55.943Z,9.82
2023-06-26T11:14:26.167Z,13.23
2023-06-26T11:16:58.450Z,10.65
2023-06-26T11:19:28.665Z,8.55
2023-06-26T11:22:01.613Z,8.63
2023-06-26T11:24:30.683Z,7.88
2023-06-26T11:27:02.095Z,14.45
2023-06-26T11:29:29.865Z,12.10
2023-06-26T11:32:05.153Z,9.88
2023-06-26T11:34:34.554Z,8.75
2023-06-26T11:37:02.783Z,9.40
2023-06-26T11:39:30.844Z,8.32
2023-06-26T11:42:00.169Z,14.05
2023-06-26T11:44:31.895Z,7.25
2023-06-26T11:46:59.707Z,10.32
2023-06-26T11:49:29.418Z,10.60
2023-06-26T11:51:57.504Z,10.52
2023-06-26T11:54:27.294Z,9.07
2023-06-26T11:57:00.092Z,9.60
2023-06-26T11:59:43.397Z,7.60
2023-06-26T12:02:14.099Z,8.30
2023-06-26T12:04:46.666Z,8.02
2023-06-26T12:07:15.677Z,6.85
2023-06-26T12:09:45.422Z,8.23
2023-06-26T12:12:16.262Z,19.50
2023-06-26T12:14:44.053Z,10.52
2023-06-26T12:17:13.367Z,11.73
2023-06-26T12:19:45.974Z,12.25
2023-06-26T12:22:13.672Z,10.30
2023-06-26T12:24:41.525Z,8.07
2023-06-26T12:27:12.241Z,9.13
2023-06-26T12:29:43.116Z,8.07
2023-06-26T12:32:11.619Z,8.82
